createdAt,value
2017-12-17T00:01:37.875Z,87.10
2017-12-17T00:04:05.572Z,87.50
2017-12-17T00:06:33.192Z,87.80
2017-12-17T00:09:00.894Z,87.90
2017-12-17T00:11:28.514Z,87.00
2017-12-17T00:13:58.047Z,86.90
2017-12-17T00:16:25.676Z,86.70
2017-12-17T00:18:53.383Z,86.70
2017-12-17T00:21:21.011Z,85.70
2017-12-17T00:23:49.059Z,85.90
2017-12-17T00:26:16.750Z,85.60
2017-12-17T00:28:44.381Z,85.30
2017-12-17T00:31:12.125Z,85.20
2017-12-17T00:33:39.825Z,85.00
2017-12-17T00:36:07.462Z,85.30
2017-12-17T00:38:35.083Z,85.00
2017-12-17T00:41:02.777Z,84.70
2017-12-17T00:48:37.204Z,84.10
2017-12-17T00:51:04.824Z,83.90
2017-12-17T00:53:32.456Z,84.30
2017-12-17T00:56:01.099Z,83.80
2017-12-17T00:58:28.741Z,84.00
2017-12-17T01:00:56.362Z,84.50
2017-12-17T01:03:24.064Z,84.00
2017-12-17T01:05:51.689Z,83.10
2017-12-17T01:08:19.316Z,82.50
2017-12-17T01:10:46.998Z,82.70
2017-12-17T01:15:46.416Z,84.90
2017-12-17T01:18:14.046Z,85.10
2017-12-17T01:20:41.865Z,85.00
2017-12-17T01:23:09.333Z,84.70
2017-12-17T01:25:37.016Z,84.20
2017-12-17T01:28:04.573Z,83.70
2017-12-17T01:30:33.114Z,82.80
2017-12-17T01:33:00.741Z,84.30
2017-12-17T01:35:28.353Z,83.60
2017-12-17T01:37:56.018Z,83.20
2017-12-17T01:40:23.631Z,83.10
2017-12-17T01:42:51.243Z,82.50
2017-12-17T01:45:18.970Z,83.00
2017-12-17T01:47:46.551Z,83.70
2017-12-17T01:50:14.167Z,84.50
2017-12-17T01:52:41.835Z,83.80
2017-12-17T01:55:09.452Z,83.50
2017-12-17T01:57:37.070Z,83.80
2017-12-17T02:00:04.768Z,83.40
2017-12-17T02:05:12.020Z,83.00
2017-12-17T02:07:39.641Z,82.50
2017-12-17T02:10:08.199Z,82.20
2017-12-17T02:12:35.867Z,82.40
2017-12-17T02:15:03.488Z,82.80
2017-12-17T02:17:34.384Z,82.40
2017-12-17T02:20:02.070Z,81.50
2017-12-17T02:25:13.051Z,81.90
2017-12-17T02:30:08.281Z,81.90
2017-12-17T02:32:36.698Z,81.90
2017-12-17T02:35:04.317Z,82.00
2017-12-17T02:37:31.932Z,81.70
2017-12-17T02:39:59.635Z,81.80
2017-12-17T02:45:07.560Z,81.90
2017-12-17T02:47:35.103Z,81.90
2017-12-17T02:50:02.719Z,82.00
2017-12-17T02:52:30.414Z,81.80
2017-12-17T02:57:26.593Z,82.80
2017-12-17T02:59:54.273Z,82.00
2017-12-17T03:02:21.894Z,82.10
2017-12-17T03:04:49.518Z,82.70
2017-12-17T03:07:17.220Z,83.10
2017-12-17T03:09:44.839Z,83.30
2017-12-17T03:12:13.473Z,83.50
2017-12-17T03:14:41.160Z,82.90
2017-12-17T03:17:08.777Z,83.60
2017-12-17T03:19:36.396Z,83.50
2017-12-17T03:22:04.509Z,83.40
2017-12-17T03:26:59.735Z,83.40
2017-12-17T03:29:27.408Z,83.20
2017-12-17T03:31:55.036Z,82.70
2017-12-17T03:34:22.685Z,83.40
2017-12-17T03:36:50.356Z,83.50
2017-12-17T03:39:17.977Z,82.80
2017-12-17T03:41:45.590Z,82.50
2017-12-17T03:46:52.374Z,84.00
2017-12-17T03:49:20.065Z,84.40
2017-12-17T03:51:47.700Z,83.30
2017-12-17T03:54:15.322Z,83.20
2017-12-17T03:56:43.026Z,82.90
2017-12-17T03:59:10.644Z,82.90
2017-12-17T04:01:38.266Z,82.70
2017-12-17T04:04:05.949Z,82.90
2017-12-17T04:06:33.556Z,83.60
2017-12-17T04:09:01.172Z,84.40
2017-12-17T04:11:28.872Z,84.50
2017-12-17T04:13:56.489Z,83.80
2017-12-17T04:16:24.104Z,83.70
2017-12-17T04:18:51.781Z,83.80
2017-12-17T04:21:19.420Z,83.50
2017-12-17T04:23:47.036Z,83.50
2017-12-17T04:26:14.723Z,83.20
2017-12-17T04:28:42.342Z,84.00
2017-12-17T04:31:09.959Z,84.10
2017-12-17T04:33:38.538Z,84.30
2017-12-17T04:38:33.762Z,83.80
2017-12-17T04:41:01.447Z,84.00
2017-12-17T04:43:29.054Z,83.00
2017-12-17T04:45:56.669Z,83.00
2017-12-17T04:48:24.361Z,83.00
2017-12-17T04:50:52.466Z,83.20
2017-12-17T04:53:20.109Z,82.40
2017-12-17T04:55:47.787Z,82.60
2017-12-17T05:03:24.170Z,82.50
2017-12-17T05:05:51.779Z,83.40
2017-12-17T05:08:23.378Z,82.70
2017-12-17T05:10:51.312Z,82.90
2017-12-17T05:13:18.927Z,83.50
2017-12-17T05:23:39.231Z,84.00
2017-12-17T05:26:06.846Z,83.20
2017-12-17T05:28:34.465Z,83.00
2017-12-17T05:33:30.721Z,83.40
2017-12-17T05:35:58.334Z,85.50
2017-12-17T05:38:26.532Z,85.40
2017-12-17T05:43:21.685Z,86.00
2017-12-17T05:45:49.369Z,87.00
2017-12-17T05:48:16.985Z,87.00
2017-12-17T05:50:45.422Z,87.10
2017-12-17T05:53:13.111Z,86.90
2017-12-17T05:55:41.688Z,86.70
2017-12-17T05:58:09.305Z,86.00
2017-12-17T06:00:37.014Z,86.20
2017-12-17T06:03:04.597Z,85.70
2017-12-17T06:05:32.760Z,85.10
2017-12-17T06:10:29.396Z,85.00
2017-12-17T06:12:57.017Z,84.90
2017-12-17T06:15:24.685Z,84.80
2017-12-17T06:17:52.828Z,85.40
2017-12-17T06:20:21.204Z,85.40
2017-12-17T06:22:48.870Z,86.20
2017-12-17T06:25:16.484Z,86.50
2017-12-17T06:27:44.099Z,86.10
2017-12-17T06:30:11.762Z,85.50
2017-12-17T06:32:39.399Z,85.60
2017-12-17T06:35:07.426Z,85.10
2017-12-17T06:37:35.151Z,85.80
2017-12-17T06:42:41.354Z,86.60
2017-12-17T06:45:08.965Z,86.30
2017-12-17T06:47:36.580Z,85.00
2017-12-17T06:50:04.270Z,84.40
2017-12-17T06:52:31.886Z,84.50
2017-12-17T06:54:59.505Z,85.10
2017-12-17T06:57:27.176Z,84.90
2017-12-17T06:59:54.793Z,84.50
2017-12-17T07:02:22.405Z,85.20
2017-12-17T07:04:50.101Z,85.80
2017-12-17T07:07:17.706Z,85.80
2017-12-17T07:09:45.323Z,85.80
2017-12-17T07:12:12.990Z,85.20
2017-12-17T07:14:40.608Z,85.80
2017-12-17T07:17:08.222Z,86.00
2017-12-17T07:19:36.302Z,86.20
2017-12-17T07:22:03.916Z,86.40
2017-12-17T07:24:31.537Z,87.20
2017-12-17T07:26:59.208Z,86.70
2017-12-17T07:29:26.835Z,85.90
2017-12-17T07:34:22.158Z,85.60
2017-12-17T07:36:49.752Z,85.70
2017-12-17T07:39:17.364Z,86.30
2017-12-17T07:41:45.058Z,86.20
2017-12-17T07:44:12.668Z,86.30
2017-12-17T07:46:41.235Z,87.00
2017-12-17T07:49:08.921Z,87.00
2017-12-17T07:51:36.541Z,87.10
2017-12-17T07:54:04.158Z,87.10
2017-12-17T07:59:00.322Z,86.20
2017-12-17T08:01:27.935Z,86.30
2017-12-17T08:03:56.435Z,85.90
2017-12-17T08:13:58.620Z,87.00
2017-12-17T08:16:26.235Z,86.60
2017-12-17T08:18:53.922Z,86.40
2017-12-17T08:21:21.535Z,86.20
2017-12-17T08:26:16.822Z,86.10
2017-12-17T08:28:45.349Z,86.20
2017-12-17T08:31:13.822Z,85.60
2017-12-17T08:33:41.519Z,85.30
2017-12-17T08:36:09.153Z,86.00
2017-12-17T08:38:36.773Z,86.30
2017-12-17T08:41:04.448Z,85.80
2017-12-17T08:43:32.057Z,85.70
2017-12-17T08:45:59.685Z,85.80
2017-12-17T08:48:28.221Z,85.60
2017-12-17T08:50:56.691Z,84.80
2017-12-17T08:53:24.306Z,85.20
2017-12-17T08:55:52.000Z,85.10
2017-12-17T08:58:19.657Z,85.10
2017-12-17T09:00:47.286Z,85.40
2017-12-17T09:03:14.955Z,85.40
2017-12-17T09:05:42.578Z,85.90
2017-12-17T09:08:10.783Z,85.50
2017-12-17T09:10:38.471Z,85.50
2017-12-17T09:13:06.087Z,85.40
2017-12-17T09:15:33.708Z,85.00
2017-12-17T09:18:01.382Z,85.40
2017-12-17T09:20:29.005Z,85.20
2017-12-17T09:22:56.614Z,85.40
2017-12-17T09:25:24.560Z,84.90
2017-12-17T09:27:52.178Z,84.60
2017-12-17T09:30:19.805Z,84.10
2017-12-17T09:37:56.350Z,87.70
2017-12-17T09:40:23.980Z,88.10
2017-12-17T09:42:51.602Z,85.30
2017-12-17T09:45:19.281Z,85.60
2017-12-17T09:47:46.911Z,84.80
2017-12-17T09:50:14.527Z,84.90
2017-12-17T09:52:42.198Z,83.90
2017-12-17T09:55:09.819Z,84.90
2017-12-17T09:57:37.446Z,85.30
2017-12-17T10:00:05.157Z,86.10
2017-12-17T10:02:32.775Z,86.60
2017-12-17T10:05:01.316Z,87.10
2017-12-17T10:07:29.017Z,87.60
2017-12-17T10:09:56.893Z,88.30
2017-12-17T10:12:24.510Z,88.20
2017-12-17T10:14:52.198Z,88.30
2017-12-17T10:17:19.812Z,88.80
2017-12-17T10:19:48.080Z,89.20
2017-12-17T10:22:15.783Z,89.50
2017-12-17T10:24:43.426Z,89.60
2017-12-17T10:27:11.039Z,89.40
2017-12-17T10:29:38.713Z,89.40
2017-12-17T10:32:07.123Z,89.10
2017-12-17T10:37:02.415Z,89.10
2017-12-17T10:39:30.048Z,89.30
2017-12-17T10:41:57.665Z,88.80
2017-12-17T10:44:25.344Z,88.40
2017-12-17T10:46:52.957Z,87.50
2017-12-17T10:49:20.579Z,87.60
2017-12-17T10:51:48.254Z,87.60
2017-12-17T10:54:15.871Z,87.70
2017-12-17T10:56:43.491Z,88.00
2017-12-17T11:04:17.918Z,87.50
2017-12-17T11:06:45.549Z,87.60
2017-12-17T11:09:14.944Z,86.50
2017-12-17T11:11:42.700Z,85.90
2017-12-17T11:16:37.931Z,86.40
2017-12-17T11:19:06.564Z,85.90
2017-12-17T11:24:01.802Z,86.20
2017-12-17T11:26:29.485Z,85.80
2017-12-17T11:28:57.092Z,84.60
2017-12-17T11:31:24.736Z,84.70
2017-12-17T11:33:52.404Z,84.80
2017-12-17T11:36:20.032Z,84.50
2017-12-17T11:38:47.668Z,84.00
2017-12-17T11:41:15.383Z,84.10
2017-12-17T11:43:43.008Z,84.10
2017-12-17T11:46:10.632Z,83.80
2017-12-17T11:48:38.328Z,84.90
2017-12-17T11:51:05.950Z,84.80
2017-12-17T11:56:01.613Z,84.20
2017-12-17T11:58:29.248Z,83.20
2017-12-17T12:03:24.599Z,85.90
2017-12-17T12:05:52.219Z,85.90
2017-12-17T12:13:28.405Z,84.60
2017-12-17T12:15:57.035Z,83.40
2017-12-17T12:18:25.655Z,82.80
2017-12-17T12:20:53.302Z,82.40
2017-12-17T12:25:59.732Z,82.90
2017-12-17T12:28:27.408Z,82.50
2017-12-17T12:30:55.034Z,80.90
2017-12-17T12:33:22.650Z,81.00
2017-12-17T12:35:51.108Z,82.50
2017-12-17T12:38:18.742Z,81.90
2017-12-17T12:40:46.474Z,81.60
2017-12-17T12:43:14.885Z,82.30
2017-12-17T12:45:42.522Z,82.70
2017-12-17T12:48:10.975Z,82.20
2017-12-17T12:50:38.676Z,83.20
2017-12-17T12:53:06.290Z,83.30
2017-12-17T12:55:33.908Z,84.20
2017-12-17T13:03:08.305Z,85.10
2017-12-17T13:05:35.915Z,84.70
2017-12-17T13:08:03.525Z,84.10
2017-12-17T13:10:31.214Z,84.00
2017-12-17T13:12:58.819Z,83.80
2017-12-17T13:15:26.450Z,84.30
2017-12-17T13:20:23.433Z,83.80
2017-12-17T13:22:51.039Z,83.90
2017-12-17T13:25:18.731Z,83.00
2017-12-17T13:30:13.947Z,81.30
2017-12-17T13:35:09.239Z,82.40
2017-12-17T13:37:37.146Z,81.90
2017-12-17T13:40:05.551Z,82.20
2017-12-17T13:42:33.155Z,81.80
2017-12-17T13:45:01.495Z,80.80
2017-12-17T13:47:30.466Z,81.50
2017-12-17T13:49:56.777Z,82.10
2017-12-17T13:52:24.386Z,83.00
2017-12-17T13:54:52.069Z,83.40
2017-12-17T13:57:19.683Z,83.70
2017-12-17T13:59:47.825Z,84.20
2017-12-17T14:02:15.494Z,85.30
2017-12-17T14:04:43.113Z,85.00
2017-12-17T14:07:10.729Z,85.10
2017-12-17T14:12:17.517Z,84.90
2017-12-17T14:14:45.179Z,85.30
2017-12-17T14:17:12.784Z,85.20
2017-12-17T14:19:40.392Z,85.00
2017-12-17T14:22:08.094Z,85.60
2017-12-17T14:24:35.691Z,85.80
2017-12-17T14:27:03.304Z,85.60
2017-12-17T14:29:30.972Z,85.80
2017-12-17T14:31:58.583Z,85.30
2017-12-17T14:34:26.207Z,85.20
2017-12-17T14:36:53.910Z,85.00
2017-12-17T14:39:21.541Z,84.70
2017-12-17T14:44:29.931Z,86.90
2017-12-17T14:46:57.556Z,86.80
2017-12-17T14:49:25.318Z,86.30
2017-12-17T14:51:53.005Z,84.90
2017-12-17T14:54:20.632Z,86.00
2017-12-17T14:56:48.264Z,87.00
2017-12-17T15:01:54.675Z,87.00
2017-12-17T15:04:22.355Z,87.10
2017-12-17T15:06:49.987Z,86.40
2017-12-17T15:09:17.607Z,86.10
2017-12-17T15:11:48.511Z,85.80
2017-12-17T15:14:16.135Z,85.10
2017-12-17T15:16:43.763Z,84.80
2017-12-17T15:19:11.438Z,84.20
2017-12-17T15:21:39.082Z,84.30
2017-12-17T15:24:06.691Z,84.50
2017-12-17T15:26:34.367Z,85.50
2017-12-17T15:29:02.007Z,86.50
2017-12-17T15:31:29.645Z,86.50
2017-12-17T15:33:57.345Z,86.30
2017-12-17T15:36:25.095Z,85.70
2017-12-17T15:38:52.599Z,85.70
2017-12-17T15:41:20.307Z,85.80
2017-12-17T15:43:47.944Z,85.60
2017-12-17T15:46:15.560Z,85.90
2017-12-17T15:48:43.996Z,85.60
2017-12-17T15:53:39.267Z,85.40
2017-12-17T15:56:06.956Z,85.40
2017-12-17T15:58:34.582Z,86.30
2017-12-17T16:01:02.213Z,85.80
2017-12-17T16:03:29.916Z,84.90
2017-12-17T16:05:57.539Z,84.80
2017-12-17T16:08:25.170Z,85.50
2017-12-17T16:10:52.872Z,85.50
2017-12-17T16:13:20.495Z,85.60
2017-12-17T16:15:48.116Z,85.60
2017-12-17T16:18:15.798Z,85.70
2017-12-17T16:23:22.592Z,85.30
2017-12-17T16:25:50.222Z,85.10
2017-12-17T16:28:17.844Z,85.00
2017-12-17T16:30:45.530Z,84.90
2017-12-17T16:33:13.200Z,84.70
2017-12-17T16:35:40.824Z,84.60
2017-12-17T16:38:08.530Z,85.40
2017-12-17T16:40:36.152Z,85.60
2017-12-17T16:43:03.776Z,84.60
2017-12-17T16:45:31.483Z,84.00
2017-12-17T16:47:59.186Z,83.70
2017-12-17T16:50:26.796Z,83.30
2017-12-17T16:52:54.500Z,82.30
2017-12-17T16:55:22.133Z,82.50
2017-12-17T16:57:49.757Z,82.80
2017-12-17T17:02:58.156Z,83.00
2017-12-17T17:05:25.836Z,82.80
2017-12-17T17:07:53.455Z,81.40
2017-12-17T17:10:21.083Z,80.70
2017-12-17T17:12:51.651Z,80.60
2017-12-17T17:15:16.407Z,81.00
2017-12-17T17:17:44.035Z,80.60
2017-12-17T17:20:11.731Z,80.90
2017-12-17T17:22:39.340Z,81.50
2017-12-17T17:25:06.973Z,80.90
2017-12-17T17:27:34.784Z,81.50
2017-12-17T17:30:03.103Z,81.80
2017-12-17T17:32:34.943Z,81.60
2017-12-17T17:35:02.163Z,81.60
2017-12-17T17:37:29.783Z,81.50
2017-12-17T17:39:57.397Z,82.20
2017-12-17T17:42:25.232Z,82.30
2017-12-17T17:44:52.847Z,81.40
2017-12-17T17:47:20.475Z,81.40
2017-12-17T17:49:48.223Z,81.20
2017-12-17T17:52:15.851Z,81.30
2017-12-17T17:54:43.481Z,81.40
2017-12-17T17:57:11.402Z,81.60
2017-12-17T17:59:39.020Z,81.20
2017-12-17T18:02:06.665Z,81.10
2017-12-17T18:04:34.414Z,81.10
2017-12-17T18:07:02.030Z,81.60
2017-12-17T18:09:29.651Z,81.20
2017-12-17T18:11:57.348Z,81.10
2017-12-17T18:14:24.976Z,80.80
2017-12-17T18:16:52.597Z,80.60
2017-12-17T18:19:20.290Z,80.70
2017-12-17T18:21:47.909Z,80.60
2017-12-17T18:26:55.624Z,82.80
2017-12-17T18:29:23.257Z,82.60
2017-12-17T18:31:50.885Z,81.60
2017-12-17T18:34:18.601Z,82.00
2017-12-17T18:36:46.230Z,82.80
2017-12-17T18:39:13.878Z,83.40
2017-12-17T18:41:41.568Z,82.90
2017-12-17T18:44:09.193Z,82.60
2017-12-17T18:46:36.824Z,82.50
2017-12-17T18:49:04.528Z,83.20
2017-12-17T18:51:33.016Z,84.30
2017-12-17T18:54:00.631Z,84.10
2017-12-17T18:58:56.060Z,84.00
2017-12-17T19:01:23.686Z,83.90
2017-12-17T19:03:51.359Z,84.00
2017-12-17T19:08:47.485Z,83.00
2017-12-17T19:11:16.219Z,82.90
2017-12-17T19:13:43.755Z,82.30
2017-12-17T19:16:12.125Z,81.90
2017-12-17T19:18:39.831Z,81.60
2017-12-17T19:21:07.447Z,81.00
2017-12-17T19:23:35.258Z,81.40
2017-12-17T19:26:02.963Z,81.50
2017-12-17T19:28:30.651Z,82.20
2017-12-17T19:30:58.268Z,82.20
2017-12-17T19:33:26.213Z,82.40
2017-12-17T19:35:54.007Z,82.40
2017-12-17T19:38:21.599Z,81.80
2017-12-17T19:40:49.304Z,82.00
2017-12-17T19:43:16.944Z,81.10
2017-12-17T19:45:44.565Z,81.10
2017-12-17T19:53:19.044Z,81.30
2017-12-17T19:55:46.666Z,81.30
2017-12-17T19:58:14.350Z,80.90
2017-12-17T20:00:42.033Z,80.80
2017-12-17T20:03:09.674Z,80.60
2017-12-17T20:05:37.312Z,80.80
2017-12-17T20:08:04.998Z,81.40
2017-12-17T20:10:32.641Z,82.30
2017-12-17T20:15:27.966Z,83.60
2017-12-17T20:17:55.582Z,83.50
2017-12-17T20:20:23.223Z,82.90
2017-12-17T20:22:50.913Z,82.30
2017-12-17T20:25:18.677Z,82.00
2017-12-17T20:27:46.281Z,82.10
2017-12-17T20:30:14.011Z,82.00
2017-12-17T20:32:41.653Z,82.90
2017-12-17T20:35:09.255Z,82.90
2017-12-17T20:37:36.967Z,82.40
2017-12-17T20:40:04.678Z,82.50
2017-12-17T20:42:32.359Z,82.30
2017-12-17T20:45:00.045Z,82.20
2017-12-17T20:47:27.664Z,82.20
2017-12-17T20:49:55.293Z,82.20
2017-12-17T20:52:22.995Z,82.30
2017-12-17T20:54:50.620Z,82.00
2017-12-17T20:57:18.256Z,82.00
2017-12-17T20:59:46.078Z,82.40
2017-12-17T21:02:13.682Z,83.40
2017-12-17T21:04:41.302Z,82.80
2017-12-17T21:07:08.991Z,83.20
2017-12-17T21:09:36.618Z,82.70
2017-12-17T21:14:43.411Z,82.30
2017-12-17T21:17:11.040Z,83.10
2017-12-17T21:19:38.678Z,83.00
2017-12-17T21:22:06.379Z,82.10
2017-12-17T21:24:34.027Z,81.40
2017-12-17T21:27:01.748Z,81.50
2017-12-17T21:29:29.436Z,80.80
2017-12-17T21:31:57.073Z,80.80
2017-12-17T21:34:24.705Z,81.50
2017-12-17T21:36:52.450Z,83.50
2017-12-17T21:39:20.109Z,83.80
2017-12-17T21:41:47.735Z,85.40
2017-12-17T21:44:15.416Z,86.40
2017-12-17T21:46:43.045Z,86.30
2017-12-17T21:49:10.655Z,85.30
2017-12-17T21:51:38.374Z,85.40
2017-12-17T21:54:05.995Z,85.00
2017-12-17T21:56:33.631Z,85.10
2017-12-17T21:59:01.335Z,85.00
2017-12-17T22:01:29.046Z,86.40
2017-12-17T22:06:24.363Z,87.40
2017-12-17T22:08:51.988Z,87.20
2017-12-17T22:11:19.615Z,87.00
2017-12-17T22:13:47.600Z,87.10
2017-12-17T22:16:15.217Z,87.30
2017-12-17T22:18:42.852Z,87.90
2017-12-17T22:21:10.537Z,87.90
2017-12-17T22:26:05.786Z,88.30
2017-12-17T22:28:33.488Z,88.10
2017-12-17T22:31:01.115Z,87.90
2017-12-17T22:33:28.755Z,87.70
2017-12-17T22:35:56.426Z,87.50
2017-12-17T22:38:24.045Z,87.20
2017-12-17T22:43:30.841Z,86.80
2017-12-17T22:45:58.453Z,86.30
2017-12-17T22:48:26.075Z,85.80
2017-12-17T22:50:53.759Z,85.50
2017-12-17T22:53:21.378Z,84.80
2017-12-17T22:55:49.097Z,84.10
2017-12-17T22:58:16.766Z,82.50
2017-12-17T23:00:44.386Z,80.10
2017-12-17T23:03:12.007Z,80.80
2017-12-17T23:05:39.705Z,80.80
2017-12-17T23:08:07.315Z,81.30
2017-12-17T23:10:34.948Z,81.50
2017-12-17T23:15:41.358Z,81.50
2017-12-17T23:18:09.027Z,81.80
2017-12-17T23:20:36.648Z,81.00
2017-12-17T23:25:36.112Z,81.00
2017-12-17T23:28:03.728Z,81.10
2017-12-17T23:30:31.359Z,80.60
2017-12-17T23:32:59.038Z,80.90
2017-12-17T23:35:26.663Z,80.10
2017-12-17T23:37:54.283Z,80.10
2017-12-17T23:40:21.979Z,80.00
2017-12-17T23:45:17.239Z,80.60
2017-12-17T23:47:44.920Z,85.60
2017-12-17T23:50:12.539Z,83.30
2017-12-17T23:52:40.160Z,82.00
2017-12-17T23:55:08.156Z,81.20
2017-12-17T23:57:35.777Z,80.00
